CYXH

Medicine Hat Airport

Medicine Hat, Alberta, Canada
METAR CYXH 160500Z AUTO 00000KT 9SM CLR M05/M08 A3009 RMK ICG SLP218
Observed Flight Rules
Dec-16 @ 05:00 UTC (an hour ago) Visual Flight Rules
Visibility Clouds
9 miles
  • Clear skies
Temperatures Readings
Current -5°C / 23°F
Dewpoint -8°C / 18°F
Humidity 80%
Altimeter 30.09" Hg
Pressure 1021.8 hPa
Elevation 716
METAR CYXH 160500Z AUTO 00000KT 9SM CLR M05/M08 A3009 RMK ICG SLP218
Observed Flight Rules
Dec-16 @ 05:00 UTC
(an hour ago)
VFR
Clouds
  • Clear skies
Temperature Dewpoint
-5°C / 23°F -8°C / 18°F
Humidity Altimeter Pressure
80% 30.09" Hg 1021.8 hPa